sensor_id;sensor_type;location;lat;lon;timestamp;temperature;humidity
55331;DHT22;58851;42.984;20.336;2023-03-23T00:01:16;103.30;6476.80
55331;DHT22;58851;42.984;20.336;2023-03-23T00:03:47;103.20;6476.80
55331;DHT22;58851;42.984;20.336;2023-03-23T00:06:13;103.10;6476.80
55331;DHT22;58851;42.984;20.336;2023-03-23T00:08:45;103.00;6476.80
55331;DHT22;58851;42.984;20.336;2023-03-23T00:11:19;103.00;6476.80
55331;DHT22;58851;42.984;20.336;2023-03-23T00:13:47;103.00;6476.80
55331;DHT22;58851;42.984;20.336;2023-03-23T00:16:13;103.00;6476.80
55331;DHT22;58851;42.984;20.336;2023-03-23T00:18:46;102.90;6476.80
55331;DHT22;58851;42.984;20.336;2023-03-23T00:21:12;102.90;6476.80
55331;DHT22;58851;42.984;20.336;2023-03-23T00:23:38;102.90;6476.80
55331;DHT22;58851;42.984;20.336;2023-03-23T00:26:04;102.80;6476.80
55331;DHT22;58851;42.984;20.336;2023-03-23T00:28:31;102.80;6476.80
55331;DHT22;58851;42.984;20.336;2023-03-23T00:31:02;102.80;6476.80
55331;DHT22;58851;42.984;20.336;2023-03-23T00:33:30;102.80;6476.80
55331;DHT22;58851;42.984;20.336;2023-03-23T00:35:59;102.70;6476.80
55331;DHT22;58851;42.984;20.336;2023-03-23T00:38:25;102.70;6476.80
55331;DHT22;58851;42.984;20.336;2023-03-23T00:40:51;102.70;6476.80
55331;DHT22;58851;42.984;20.336;2023-03-23T00:43:18;102.70;6476.80
55331;DHT22;58851;42.984;20.336;2023-03-23T00:45:45;102.60;6476.80
55331;DHT22;58851;42.984;20.336;2023-03-23T00:48:22;102.60;6476.80
55331;DHT22;58851;42.984;20.336;2023-03-23T00:50:49;102.50;6476.80
55331;DHT22;58851;42.984;20.336;2023-03-23T00:53:15;102.40;6476.80
55331;DHT22;58851;42.984;20.336;2023-03-23T00:55:42;102.40;6476.80
55331;DHT22;58851;42.984;20.336;2023-03-23T00:58:09;102.40;6476.80
55331;DHT22;58851;42.984;20.336;2023-03-23T01:00:35;102.40;6476.80
55331;DHT22;58851;42.984;20.336;2023-03-23T01:03:01;102.40;6476.80
55331;DHT22;58851;42.984;20.336;2023-03-23T01:05:27;102.40;6476.80
55331;DHT22;58851;42.984;20.336;2023-03-23T01:08:00;77.70;6476.80
55331;DHT22;58851;42.984;20.336;2023-03-23T01:10:27;77.70;6476.80
55331;DHT22;58851;42.984;20.336;2023-03-23T01:12:54;77.70;6476.80
55331;DHT22;58851;42.984;20.336;2023-03-23T01:15:20;77.60;6476.80
55331;DHT22;58851;42.984;20.336;2023-03-23T01:17:46;77.60;6476.80
55331;DHT22;58851;42.984;20.336;2023-03-23T01:20:14;77.50;6476.80
55331;DHT22;58851;42.984;20.336;2023-03-23T01:22:41;77.50;6476.80
55331;DHT22;58851;42.984;20.336;2023-03-23T01:25:08;77.50;6476.80
55331;DHT22;58851;42.984;20.336;2023-03-23T01:27:35;77.50;6476.80
55331;DHT22;58851;42.984;20.336;2023-03-23T01:30:01;77.50;6476.80
55331;DHT22;58851;42.984;20.336;2023-03-23T01:32:26;77.50;6476.80
55331;DHT22;58851;42.984;20.336;2023-03-23T01:34:52;77.50;6476.80
55331;DHT22;58851;42.984;20.336;2023-03-23T01:37:18;77.40;6476.80
55331;DHT22;58851;42.984;20.336;2023-03-23T01:39:45;77.30;6476.80
55331;DHT22;58851;42.984;20.336;2023-03-23T01:42:11;77.30;6476.80
55331;DHT22;58851;42.984;20.336;2023-03-23T01:47:03;77.20;6476.80
55331;DHT22;58851;42.984;20.336;2023-03-23T01:49:38;77.30;6476.80
55331;DHT22;58851;42.984;20.336;2023-03-23T01:52:26;77.20;6476.80
55331;DHT22;58851;42.984;20.336;2023-03-23T01:54:55;77.20;6476.80
55331;DHT22;58851;42.984;20.336;2023-03-23T01:57:24;77.20;6476.80
55331;DHT22;58851;42.984;20.336;2023-03-23T01:59:53;77.10;6476.80
55331;DHT22;58851;42.984;20.336;2023-03-23T02:02:23;77.20;6476.80
55331;DHT22;58851;42.984;20.336;2023-03-23T02:04:50;77.20;6476.80
55331;DHT22;58851;42.984;20.336;2023-03-23T02:07:18;77.10;6476.80
55331;DHT22;58851;42.984;20.336;2023-03-23T02:09:45;77.10;6476.80
55331;DHT22;58851;42.984;20.336;2023-03-23T02:12:11;77.10;6476.80
55331;DHT22;58851;42.984;20.336;2023-03-23T02:14:37;77.10;6476.80
55331;DHT22;58851;42.984;20.336;2023-03-23T02:17:32;77.10;6476.80
55331;DHT22;58851;42.984;20.336;2023-03-23T02:34:53;76.90;6476.80
55331;DHT22;58851;42.984;20.336;2023-03-23T02:37:31;76.90;6476.80
55331;DHT22;58851;42.984;20.336;2023-03-23T02:40:12;76.90;6476.80
55331;DHT22;58851;42.984;20.336;2023-03-23T02:42:40;76.90;6476.80
55331;DHT22;58851;42.984;20.336;2023-03-23T02:45:09;76.80;6476.80
55331;DHT22;58851;42.984;20.336;2023-03-23T02:47:37;76.80;6476.80
55331;DHT22;58851;42.984;20.336;2023-03-23T02:50:05;76.80;6476.80
55331;DHT22;58851;42.984;20.336;2023-03-23T02:52:34;52.10;6476.80
55331;DHT22;58851;42.984;20.336;2023-03-23T02:55:02;76.80;6476.80
55331;DHT22;58851;42.984;20.336;2023-03-23T02:57:29;76.80;6476.80
55331;DHT22;58851;42.984;20.336;2023-03-23T02:59:55;76.80;6476.80
55331;DHT22;58851;42.984;20.336;2023-03-23T03:02:26;52.10;6476.80
55331;DHT22;58851;42.984;20.336;2023-03-23T03:05:17;52.10;6476.80
55331;DHT22;58851;42.984;20.336;2023-03-23T03:18:58;51.90;6476.80
55331;DHT22;58851;42.984;20.336;2023-03-23T03:21:28;51.90;6476.80
55331;DHT22;58851;42.984;20.336;2023-03-23T03:23:58;51.90;6476.80
55331;DHT22;58851;42.984;20.336;2023-03-23T03:26:27;51.90;6476.80
55331;DHT22;58851;42.984;20.336;2023-03-23T03:28:54;51.90;6476.80
55331;DHT22;58851;42.984;20.336;2023-03-23T03:31:30;51.90;6476.80
55331;DHT22;58851;42.984;20.336;2023-03-23T03:33:58;51.90;6476.80
55331;DHT22;58851;42.984;20.336;2023-03-23T03:36:28;51.80;6476.80
55331;DHT22;58851;42.984;20.336;2023-03-23T03:39:04;51.80;6476.80
55331;DHT22;58851;42.984;20.336;2023-03-23T03:41:32;51.80;6476.80
55331;DHT22;58851;42.984;20.336;2023-03-23T03:43:57;51.80;6476.80
55331;DHT22;58851;42.984;20.336;2023-03-23T03:46:23;51.70;6476.80
55331;DHT22;58851;42.984;20.336;2023-03-23T03:48:52;51.70;6476.80
55331;DHT22;58851;42.984;20.336;2023-03-23T03:51:18;51.70;6476.80
55331;DHT22;58851;42.984;20.336;2023-03-23T03:53:44;51.70;6476.80
55331;DHT22;58851;42.984;20.336;2023-03-23T03:56:09;51.70;6476.80
55331;DHT22;58851;42.984;20.336;2023-03-23T03:58:36;51.60;6476.80
55331;DHT22;58851;42.984;20.336;2023-03-23T04:01:03;51.60;6476.80
55331;DHT22;58851;42.984;20.336;2023-03-23T04:03:29;51.60;6476.80
55331;DHT22;58851;42.984;20.336;2023-03-23T04:05:55;51.60;6476.80
55331;DHT22;58851;42.984;20.336;2023-03-23T04:08:24;51.60;6476.80
55331;DHT22;58851;42.984;20.336;2023-03-23T04:10:52;51.60;6476.80
55331;DHT22;58851;42.984;20.336;2023-03-23T04:13:19;51.60;6476.80
55331;DHT22;58851;42.984;20.336;2023-03-23T04:15:45;51.60;6476.80
55331;DHT22;58851;42.984;20.336;2023-03-23T04:18:12;51.40;6476.80
55331;DHT22;58851;42.984;20.336;2023-03-23T04:20:47;51.50;6476.80
55331;DHT22;58851;42.984;20.336;2023-03-23T04:23:18;51.50;6476.80
55331;DHT22;58851;42.984;20.336;2023-03-23T04:25:49;51.40;6476.80
55331;DHT22;58851;42.984;20.336;2023-03-23T04:28:18;51.40;6476.80
55331;DHT22;58851;42.984;20.336;2023-03-23T04:30:46;51.40;6476.80
55331;DHT22;58851;42.984;20.336;2023-03-23T04:33:14;51.40;6476.80
55331;DHT22;58851;42.984;20.336;2023-03-23T04:35:42;51.30;6476.80
55331;DHT22;58851;42.984;20.336;2023-03-23T04:38:12;51.30;6476.80
55331;DHT22;58851;42.984;20.336;2023-03-23T04:40:42;51.30;6476.80
55331;DHT22;58851;42.984;20.336;2023-03-23T04:43:09;51.30;6476.80
55331;DHT22;58851;42.984;20.336;2023-03-23T04:45:38;51.20;6476.80
55331;DHT22;58851;42.984;20.336;2023-03-23T04:48:07;51.30;6476.80
55331;DHT22;58851;42.984;20.336;2023-03-23T04:50:34;51.20;6476.80
55331;DHT22;58851;42.984;20.336;2023-03-23T04:53:02;51.20;6476.80
55331;DHT22;58851;42.984;20.336;2023-03-23T04:55:34;51.20;6476.80
55331;DHT22;58851;42.984;20.336;2023-03-23T04:58:05;51.20;6476.80
55331;DHT22;58851;42.984;20.336;2023-03-23T05:00:34;51.20;6476.80
55331;DHT22;58851;42.984;20.336;2023-03-23T05:03:00;51.20;6476.80
55331;DHT22;58851;42.984;20.336;2023-03-23T05:05:27;51.20;6476.80
55331;DHT22;58851;42.984;20.336;2023-03-23T05:07:55;51.20;6476.80
55331;DHT22;58851;42.984;20.336;2023-03-23T05:10:21;51.30;6476.80
55331;DHT22;58851;42.984;20.336;2023-03-23T05:12:47;51.30;6476.80
55331;DHT22;58851;42.984;20.336;2023-03-23T05:15:15;51.30;6476.80
55331;DHT22;58851;42.984;20.336;2023-03-23T05:17:41;51.30;6476.80
55331;DHT22;58851;42.984;20.336;2023-03-23T05:20:18;51.40;6476.80
55331;DHT22;58851;42.984;20.336;2023-03-23T05:22:46;51.40;6476.80
55331;DHT22;58851;42.984;20.336;2023-03-23T05:25:16;51.50;6476.80
55331;DHT22;58851;42.984;20.336;2023-03-23T05:27:44;51.50;6476.80
55331;DHT22;58851;42.984;20.336;2023-03-23T05:30:15;51.50;6476.80
55331;DHT22;58851;42.984;20.336;2023-03-23T05:32:43;51.50;6476.80
55331;DHT22;58851;42.984;20.336;2023-03-23T05:35:11;51.60;6476.80
55331;DHT22;58851;42.984;20.336;2023-03-23T05:37:38;51.70;6476.80
55331;DHT22;58851;42.984;20.336;2023-03-23T05:40:05;51.70;6476.80
55331;DHT22;58851;42.984;20.336;2023-03-23T05:42:35;51.80;6476.80
55331;DHT22;58851;42.984;20.336;2023-03-23T05:45:05;51.90;6476.80
55331;DHT22;58851;42.984;20.336;2023-03-23T05:47:31;52.00;6476.80
55331;DHT22;58851;42.984;20.336;2023-03-23T05:49:57;52.10;6476.80
55331;DHT22;58851;42.984;20.336;2023-03-23T05:52:23;52.10;6476.80
55331;DHT22;58851;42.984;20.336;2023-03-23T05:54:50;76.80;6476.80
55331;DHT22;58851;42.984;20.336;2023-03-23T05:57:17;76.80;6476.80
55331;DHT22;58851;42.984;20.336;2023-03-23T05:59:44;76.90;6476.80
55331;DHT22;58851;42.984;20.336;2023-03-23T06:02:10;77.00;6476.80
55331;DHT22;58851;42.984;20.336;2023-03-23T06:04:36;77.10;6476.80
55331;DHT22;58851;42.984;20.336;2023-03-23T06:07:04;77.20;6476.80
55331;DHT22;58851;42.984;20.336;2023-03-23T06:09:30;77.30;6476.80
55331;DHT22;58851;42.984;20.336;2023-03-23T06:11:56;77.40;6476.80
55331;DHT22;58851;42.984;20.336;2023-03-23T06:14:22;77.50;6476.80
55331;DHT22;58851;42.984;20.336;2023-03-23T06:16:49;77.60;6476.80
55331;DHT22;58851;42.984;20.336;2023-03-23T06:19:16;77.70;6476.80
55331;DHT22;58851;42.984;20.336;2023-03-23T06:21:42;77.70;6476.80
55331;DHT22;58851;42.984;20.336;2023-03-23T06:24:09;102.40;6476.80
55331;DHT22;58851;42.984;20.336;2023-03-23T06:26:37;102.40;6476.80
55331;DHT22;58851;42.984;20.336;2023-03-23T06:29:05;102.50;6476.80
55331;DHT22;58851;42.984;20.336;2023-03-23T06:31:38;102.50;6476.80
55331;DHT22;58851;42.984;20.336;2023-03-23T06:34:05;102.70;6476.80
55331;DHT22;58851;42.984;20.336;2023-03-23T06:36:31;102.80;6476.80
55331;DHT22;58851;42.984;20.336;2023-03-23T06:38:57;103.00;6476.80
55331;DHT22;58851;42.984;20.336;2023-03-23T06:41:22;103.00;6476.80
55331;DHT22;58851;42.984;20.336;2023-03-23T06:43:48;103.00;6476.80
55331;DHT22;58851;42.984;20.336;2023-03-23T06:46:14;103.20;6476.80
55331;DHT22;58851;42.984;20.336;2023-03-23T06:48:39;103.20;6476.80
55331;DHT22;58851;42.984;20.336;2023-03-23T06:51:06;103.30;6476.80
55331;DHT22;58851;42.984;20.336;2023-03-23T06:53:32;128.00;6502.40
55331;DHT22;58851;42.984;20.336;2023-03-23T06:55:57;128.20;6502.40
55331;DHT22;58851;42.984;20.336;2023-03-23T06:58:23;128.40;6502.40
55331;DHT22;58851;42.984;20.336;2023-03-23T07:00:58;128.50;6502.40
55331;DHT22;58851;42.984;20.336;2023-03-23T07:03:24;128.70;6502.40
55331;DHT22;58851;42.984;20.336;2023-03-23T07:05:51;128.80;6502.40
55331;DHT22;58851;42.984;20.336;2023-03-23T07:08:17;128.90;6502.40
55331;DHT22;58851;42.984;20.336;2023-03-23T07:10:43;153.70;6502.40
55331;DHT22;58851;42.984;20.336;2023-03-23T07:13:09;153.70;6502.40
55331;DHT22;58851;42.984;20.336;2023-03-23T07:15:36;153.90;6502.40
55331;DHT22;58851;42.984;20.336;2023-03-23T07:18:02;153.90;6502.40
55331;DHT22;58851;42.984;20.336;2023-03-23T07:20:28;154.00;6502.40
55331;DHT22;58851;42.984;20.336;2023-03-23T07:22:54;153.90;6502.40
55331;DHT22;58851;42.984;20.336;2023-03-23T07:25:20;154.10;6502.40
55331;DHT22;58851;42.984;20.336;2023-03-23T07:27:46;154.20;6502.40
55331;DHT22;58851;42.984;20.336;2023-03-23T07:30:13;154.40;6502.40
55331;DHT22;58851;42.984;20.336;2023-03-23T07:32:41;179.20;6502.40
55331;DHT22;58851;42.984;20.336;2023-03-23T07:35:08;179.30;6502.40
55331;DHT22;58851;42.984;20.336;2023-03-23T07:37:34;179.40;6502.40
55331;DHT22;58851;42.984;20.336;2023-03-23T07:40:02;179.50;6502.40
55331;DHT22;58851;42.984;20.336;2023-03-23T07:43:08;179.60;6502.40
55331;DHT22;58851;42.984;20.336;2023-03-23T07:45:26;179.80;6502.40
55331;DHT22;58851;42.984;20.336;2023-03-23T07:47:52;180.00;6502.40
55331;DHT22;58851;42.984;20.336;2023-03-23T07:50:19;180.00;6502.40
55331;DHT22;58851;42.984;20.336;2023-03-23T07:52:47;204.80;6502.40
55331;DHT22;58851;42.984;20.336;2023-03-23T07:55:14;205.10;6502.40
55331;DHT22;58851;42.984;20.336;2023-03-23T07:57:47;205.30;6502.40
55331;DHT22;58851;42.984;20.336;2023-03-23T08:00:17;205.50;6502.40
55331;DHT22;58851;42.984;20.336;2023-03-23T08:02:56;205.60;6502.40
55331;DHT22;58851;42.984;20.336;2023-03-23T08:05:23;205.70;6502.40
55331;DHT22;58851;42.984;20.336;2023-03-23T08:07:52;230.50;512.00
55331;DHT22;58851;42.984;20.336;2023-03-23T08:10:20;230.40;332.80
55331;DHT22;58851;42.984;20.336;2023-03-23T08:12:51;230.50;384.00
55331;DHT22;58851;42.984;20.336;2023-03-23T08:15:19;230.70;384.00
55331;DHT22;58851;42.984;20.336;2023-03-23T08:17:47;230.90;512.00
55331;DHT22;58851;42.984;20.336;2023-03-23T08:20:13;231.00;358.40
55331;DHT22;58851;42.984;20.336;2023-03-23T08:22:49;231.10;230.40
55331;DHT22;58851;42.984;20.336;2023-03-23T08:25:16;231.20;128.00
55331;DHT22;58851;42.984;20.336;2023-03-23T08:27:42;231.30;6502.40
55331;DHT22;58851;42.984;20.336;2023-03-23T08:30:11;256.00;128.00
55331;DHT22;58851;42.984;20.336;2023-03-23T08:32:37;256.20;6502.40
55331;DHT22;58851;42.984;20.336;2023-03-23T08:35:04;256.20;6502.40
55331;DHT22;58851;42.984;20.336;2023-03-23T08:37:30;256.40;6502.40
55331;DHT22;58851;42.984;20.336;2023-03-23T08:39:56;256.50;6502.40
55331;DHT22;58851;42.984;20.336;2023-03-23T08:42:24;256.60;6502.40
55331;DHT22;58851;42.984;20.336;2023-03-23T08:44:50;256.70;6502.40
55331;DHT22;58851;42.984;20.336;2023-03-23T08:47:17;256.90;6502.40
55331;DHT22;58851;42.984;20.336;2023-03-23T08:49:43;281.70;6528.00
55331;DHT22;58851;42.984;20.336;2023-03-23T08:52:11;282.00;6528.00
55331;DHT22;58851;42.984;20.336;2023-03-23T08:54:37;282.20;6528.00
55331;DHT22;58851;42.984;20.336;2023-03-23T08:57:03;282.40;6528.00
55331;DHT22;58851;42.984;20.336;2023-03-23T08:59:29;282.50;6528.00
55331;DHT22;58851;42.984;20.336;2023-03-23T09:01:56;307.20;128.00
55331;DHT22;58851;42.984;20.336;2023-03-23T09:04:21;307.40;128.00
55331;DHT22;58851;42.984;20.336;2023-03-23T09:06:47;307.60;128.00
55331;DHT22;58851;42.984;20.336;2023-03-23T09:09:13;307.70;128.00
55331;DHT22;58851;42.984;20.336;2023-03-23T09:11:40;307.90;128.00
55331;DHT22;58851;42.984;20.336;2023-03-23T09:14:06;308.00;128.00
55331;DHT22;58851;42.984;20.336;2023-03-23T09:16:33;308.00;128.00
55331;DHT22;58851;42.984;20.336;2023-03-23T09:19:00;308.10;128.00
55331;DHT22;58851;42.984;20.336;2023-03-23T09:21:27;332.90;128.00
55331;DHT22;58851;42.984;20.336;2023-03-23T09:23:54;332.90;128.00
55331;DHT22;58851;42.984;20.336;2023-03-23T09:26:26;333.00;128.00
55331;DHT22;58851;42.984;20.336;2023-03-23T09:28:52;333.00;128.00
55331;DHT22;58851;42.984;20.336;2023-03-23T09:31:18;333.10;128.00
55331;DHT22;58851;42.984;20.336;2023-03-23T09:33:48;333.00;128.00
55331;DHT22;58851;42.984;20.336;2023-03-23T09:36:18;332.90;128.00
55331;DHT22;58851;42.984;20.336;2023-03-23T09:38:47;333.00;128.00
55331;DHT22;58851;42.984;20.336;2023-03-23T09:41:26;333.20;128.00
55331;DHT22;58851;42.984;20.336;2023-03-23T09:44:01;333.40;128.00
55331;DHT22;58851;42.984;20.336;2023-03-23T09:49:08;358.40;128.00
55331;DHT22;58851;42.984;20.336;2023-03-23T09:51:40;358.50;128.00
55331;DHT22;58851;42.984;20.336;2023-03-23T09:56:57;358.60;128.00
55331;DHT22;58851;42.984;20.336;2023-03-23T09:59:35;358.80;128.00
55331;DHT22;58851;42.984;20.336;2023-03-23T10:04:58;359.10;128.00
55331;DHT22;58851;42.984;20.336;2023-03-23T10:07:28;359.20;128.00
55331;DHT22;58851;42.984;20.336;2023-03-23T10:09:57;359.30;128.00
55331;DHT22;58851;42.984;20.336;2023-03-23T10:12:38;384.00;128.00
55331;DHT22;58851;42.984;20.336;2023-03-23T10:15:34;384.00;128.00
55331;DHT22;58851;42.984;20.336;2023-03-23T10:21:19;384.10;128.00
55331;DHT22;58851;42.984;20.336;2023-03-23T10:26:58;384.20;128.00
55331;DHT22;58851;42.984;20.336;2023-03-23T10:29:48;384.30;128.00
55331;DHT22;58851;42.984;20.336;2023-03-23T10:32:34;384.50;128.00
55331;DHT22;58851;42.984;20.336;2023-03-23T10:35:05;384.60;128.00
55331;DHT22;58851;42.984;20.336;2023-03-23T10:37:39;384.60;128.00
55331;DHT22;58851;42.984;20.336;2023-03-23T10:40:15;384.70;128.00
55331;DHT22;58851;42.984;20.336;2023-03-23T10:42:42;384.80;128.00
55331;DHT22;58851;42.984;20.336;2023-03-23T10:45:23;384.40;128.00
55331;DHT22;58851;42.984;20.336;2023-03-23T10:48:11;384.30;128.00
55331;DHT22;58851;42.984;20.336;2023-03-23T10:50:38;384.30;128.00
55331;DHT22;58851;42.984;20.336;2023-03-23T10:53:19;384.20;128.00
55331;DHT22;58851;42.984;20.336;2023-03-23T10:55:46;384.20;128.00
55331;DHT22;58851;42.984;20.336;2023-03-23T10:58:24;384.40;128.00
55331;DHT22;58851;42.984;20.336;2023-03-23T11:00:51;384.50;128.00
55331;DHT22;58851;42.984;20.336;2023-03-23T11:05:47;384.70;128.00
55331;DHT22;58851;42.984;20.336;2023-03-23T11:08:24;384.60;128.00
55331;DHT22;58851;42.984;20.336;2023-03-23T11:10:55;384.60;128.00
55331;DHT22;58851;42.984;20.336;2023-03-23T11:13:27;384.90;128.00
55331;DHT22;58851;42.984;20.336;2023-03-23T11:15:54;384.90;128.00
55331;DHT22;58851;42.984;20.336;2023-03-23T11:18:23;409.60;128.00
55331;DHT22;58851;42.984;20.336;2023-03-23T11:20:56;409.70;128.00
55331;DHT22;58851;42.984;20.336;2023-03-23T11:23:52;409.70;128.00
55331;DHT22;58851;42.984;20.336;2023-03-23T11:26:22;409.90;128.00
55331;DHT22;58851;42.984;20.336;2023-03-23T11:31:49;410.50;128.00
55331;DHT22;58851;42.984;20.336;2023-03-23T11:34:16;410.50;128.00
55331;DHT22;58851;42.984;20.336;2023-03-23T11:36:49;435.20;128.00
55331;DHT22;58851;42.984;20.336;2023-03-23T11:39:25;435.40;128.00
55331;DHT22;58851;42.984;20.336;2023-03-23T11:41:52;435.50;128.00
55331;DHT22;58851;42.984;20.336;2023-03-23T11:44:19;435.40;128.00
55331;DHT22;58851;42.984;20.336;2023-03-23T11:47:37;435.40;128.00
55331;DHT22;58851;42.984;20.336;2023-03-23T11:50:04;435.70;128.00
55331;DHT22;58851;42.984;20.336;2023-03-23T11:52:42;435.80;128.00
55331;DHT22;58851;42.984;20.336;2023-03-23T11:55:52;436.00;128.00
55331;DHT22;58851;42.984;20.336;2023-03-23T11:58:13;460.80;128.00
55331;DHT22;58851;42.984;20.336;2023-03-23T12:00:52;460.90;128.00
55331;DHT22;58851;42.984;20.336;2023-03-23T12:03:38;461.00;128.00
55331;DHT22;58851;42.984;20.336;2023-03-23T12:06:10;461.10;128.00
55331;DHT22;58851;42.984;20.336;2023-03-23T12:16:53;461.60;128.00
55331;DHT22;58851;42.984;20.336;2023-03-23T12:19:30;461.60;128.00
55331;DHT22;58851;42.984;20.336;2023-03-23T12:49:20;486.70;128.00
55331;DHT22;58851;42.984;20.336;2023-03-23T12:54:58;487.10;128.00
55331;DHT22;58851;42.984;20.336;2023-03-23T12:57:40;487.10;128.00
55331;DHT22;58851;42.984;20.336;2023-03-23T13:00:19;487.20;128.00
55331;DHT22;58851;42.984;20.336;2023-03-23T13:03:02;512.30;128.00
55331;DHT22;58851;42.984;20.336;2023-03-23T13:05:49;512.60;128.00
55331;DHT22;58851;42.984;20.336;2023-03-23T13:08:31;512.90;128.00
55331;DHT22;58851;42.984;20.336;2023-03-23T13:11:03;537.90;128.00
55331;DHT22;58851;42.984;20.336;2023-03-23T13:22:13;537.90;128.00
55331;DHT22;58851;42.984;20.336;2023-03-23T13:24:51;563.20;128.00
55331;DHT22;58851;42.984;20.336;2023-03-23T13:27:17;563.80;128.00
55331;DHT22;58851;42.984;20.336;2023-03-23T13:29:49;588.90;128.00
55331;DHT22;58851;42.984;20.336;2023-03-23T13:32:17;564.10;128.00
55331;DHT22;58851;42.984;20.336;2023-03-23T13:34:46;564.10;128.00
55331;DHT22;58851;42.984;20.336;2023-03-23T13:37:24;588.90;128.00
55331;DHT22;58851;42.984;20.336;2023-03-23T13:39:56;614.40;128.00
55331;DHT22;58851;42.984;20.336;2023-03-23T13:42:28;614.50;128.00
55331;DHT22;58851;42.984;20.336;2023-03-23T13:47:39;640.00;128.00
55331;DHT22;58851;42.984;20.336;2023-03-23T14:10:43;691.90;153.60
55331;DHT22;58851;42.984;20.336;2023-03-23T14:13:21;692.10;153.60
55331;DHT22;58851;42.984;20.336;2023-03-23T14:16:14;717.00;179.20
55331;DHT22;58851;42.984;20.336;2023-03-23T14:18:42;717.20;179.20
55331;DHT22;58851;42.984;20.336;2023-03-23T14:21:21;717.00;179.20
55331;DHT22;58851;42.984;20.336;2023-03-23T14:23:47;692.10;153.60
55331;DHT22;58851;42.984;20.336;2023-03-23T14:26:19;717.40;179.20
55331;DHT22;58851;42.984;20.336;2023-03-23T14:28:49;717.70;179.20
55331;DHT22;58851;42.984;20.336;2023-03-23T14:33:44;742.40;204.80
55331;DHT22;58851;42.984;20.336;2023-03-23T14:36:10;717.60;179.20
55331;DHT22;58851;42.984;20.336;2023-03-23T14:38:36;717.70;179.20
55331;DHT22;58851;42.984;20.336;2023-03-23T14:41:04;742.50;204.80
55331;DHT22;58851;42.984;20.336;2023-03-23T14:43:31;742.70;204.80
55331;DHT22;58851;42.984;20.336;2023-03-23T14:46:01;742.70;204.80
55331;DHT22;58851;42.984;20.336;2023-03-23T14:48:28;742.90;204.80
55331;DHT22;58851;42.984;20.336;2023-03-23T14:51:00;742.90;204.80
55331;DHT22;58851;42.984;20.336;2023-03-23T14:53:35;743.30;204.80
55331;DHT22;58851;42.984;20.336;2023-03-23T14:56:08;743.30;204.80
55331;DHT22;58851;42.984;20.336;2023-03-23T14:58:35;768.30;204.80
55331;DHT22;58851;42.984;20.336;2023-03-23T15:03:28;768.70;204.80
55331;DHT22;58851;42.984;20.336;2023-03-23T15:05:59;768.70;204.80
55331;DHT22;58851;42.984;20.336;2023-03-23T15:08:32;768.70;204.80
55331;DHT22;58851;42.984;20.336;2023-03-23T15:11:28;793.60;230.40
55331;DHT22;58851;42.984;20.336;2023-03-23T15:13:58;768.50;204.80
55331;DHT22;58851;42.984;20.336;2023-03-23T15:16:28;768.10;204.80
55331;DHT22;58851;42.984;20.336;2023-03-23T15:19:06;743.20;204.80
55331;DHT22;58851;42.984;20.336;2023-03-23T15:22:14;742.90;204.80
55331;DHT22;58851;42.984;20.336;2023-03-23T15:24:34;742.40;204.80
55331;DHT22;58851;42.984;20.336;2023-03-23T15:27:18;717.10;179.20
55331;DHT22;58851;42.984;20.336;2023-03-23T15:29:54;691.70;153.60
55331;DHT22;58851;42.984;20.336;2023-03-23T15:32:26;666.50;153.60
55331;DHT22;58851;42.984;20.336;2023-03-23T15:34:52;665.80;153.60
55331;DHT22;58851;42.984;20.336;2023-03-23T15:37:29;640.60;128.00
55331;DHT22;58851;42.984;20.336;2023-03-23T15:39:56;640.00;128.00
55331;DHT22;58851;42.984;20.336;2023-03-23T15:42:31;614.50;128.00
55331;DHT22;58851;42.984;20.336;2023-03-23T15:47:48;589.20;128.00
55331;DHT22;58851;42.984;20.336;2023-03-23T15:50:33;588.90;128.00
55331;DHT22;58851;42.984;20.336;2023-03-23T15:53:00;563.90;128.00
55331;DHT22;58851;42.984;20.336;2023-03-23T15:55:29;563.50;128.00
55331;DHT22;58851;42.984;20.336;2023-03-23T15:58:01;538.30;128.00
55331;DHT22;58851;42.984;20.336;2023-03-23T16:00:30;538.00;128.00
55331;DHT22;58851;42.984;20.336;2023-03-23T16:03:04;538.00;128.00
55331;DHT22;58851;42.984;20.336;2023-03-23T16:05:31;537.90;128.00
55331;DHT22;58851;42.984;20.336;2023-03-23T16:07:57;537.80;128.00
55331;DHT22;58851;42.984;20.336;2023-03-23T16:10:24;537.70;128.00
55331;DHT22;58851;42.984;20.336;2023-03-23T16:12:50;537.60;128.00
55331;DHT22;58851;42.984;20.336;2023-03-23T16:15:17;512.80;128.00
55331;DHT22;58851;42.984;20.336;2023-03-23T16:17:43;512.60;128.00
55331;DHT22;58851;42.984;20.336;2023-03-23T16:20:13;512.50;128.00
55331;DHT22;58851;42.984;20.336;2023-03-23T16:22:39;512.20;128.00
55331;DHT22;58851;42.984;20.336;2023-03-23T16:25:06;487.30;128.00
55331;DHT22;58851;42.984;20.336;2023-03-23T16:27:32;487.20;128.00
55331;DHT22;58851;42.984;20.336;2023-03-23T16:29:57;487.00;128.00
55331;DHT22;58851;42.984;20.336;2023-03-23T16:32:25;487.00;128.00
55331;DHT22;58851;42.984;20.336;2023-03-23T16:34:51;486.70;128.00
55331;DHT22;58851;42.984;20.336;2023-03-23T16:37:17;486.60;128.00
55331;DHT22;58851;42.984;20.336;2023-03-23T16:39:42;486.40;128.00
55331;DHT22;58851;42.984;20.336;2023-03-23T16:42:08;461.70;128.00
55331;DHT22;58851;42.984;20.336;2023-03-23T16:44:34;461.30;128.00
55331;DHT22;58851;42.984;20.336;2023-03-23T16:47:00;461.00;128.00
55331;DHT22;58851;42.984;20.336;2023-03-23T16:49:26;460.80;128.00
55331;DHT22;58851;42.984;20.336;2023-03-23T16:51:51;435.90;128.00
55331;DHT22;58851;42.984;20.336;2023-03-23T16:54:17;435.80;128.00
55331;DHT22;58851;42.984;20.336;2023-03-23T16:56:43;435.50;128.00
55331;DHT22;58851;42.984;20.336;2023-03-23T16:59:12;435.30;128.00
55331;DHT22;58851;42.984;20.336;2023-03-23T17:01:37;410.50;128.00
55331;DHT22;58851;42.984;20.336;2023-03-23T17:04:03;410.10;128.00
55331;DHT22;58851;42.984;20.336;2023-03-23T17:06:29;410.00;128.00
55331;DHT22;58851;42.984;20.336;2023-03-23T17:08:55;409.90;128.00